Time;durP1;ratioP1;P1;durP2;ratioP2;P2;SDS_P1;SDS_P2;PMS_P1;PMS_P2;Temp;Humidity;BMP_temperature;BMP_pressure;BME280_temperature;BME280_humidity;BME280_pressure;Samples;Min_cycle;Max_cycle;Signal;HPM_P1;HPM_P2
2022/04/27 00:00:33;;;;;;;14.33;7.73;;;;;5.60;101859.00;;;;10519636;28;20230;-80
2022/04/27 00:05:36;;;;;;;9.73;7.23;;;;;5.60;101844.00;;;;10530159;28;20280;-80
2022/04/27 00:10:38;;;;;;;12.10;7.30;;;;;5.50;101835.00;;;;10478894;28;20234;-81
2022/04/27 00:15:40;;;;;;;12.23;7.30;;;;;5.50;101844.00;;;;10500022;28;20647;-80
2022/04/27 00:20:42;;;;;;;12.47;7.80;;;;;5.40;101835.00;;;;10530813;28;20281;-80
2022/04/27 00:25:44;;;;;;;12.07;7.73;;;;;5.40;101841.00;;;;10533208;28;20252;-81
2022/04/27 00:30:47;;;;;;;12.93;8.17;;;;;5.50;101842.00;;;;10506359;28;20193;-80
2022/04/27 00:35:49;;;;;;;14.80;8.50;;;;;5.60;101844.00;;;;10511841;28;20218;-80
2022/04/27 00:40:51;;;;;;;11.40;8.53;;;;;5.80;101840.00;;;;10518292;28;20270;-80
2022/04/27 00:45:53;;;;;;;14.80;8.63;;;;;5.90;101843.00;;;;10531759;28;20741;-80
2022/04/27 00:50:56;;;;;;;13.17;8.90;;;;;6.10;101843.00;;;;10510599;28;20289;-80
2022/04/27 00:55:59;;;;;;;13.07;7.87;;;;;6.10;101841.00;;;;10484848;28;20193;-80
2022/04/27 01:01:01;;;;;;;14.50;8.90;;;;;6.10;101839.00;;;;10524508;28;20204;-80
2022/04/27 01:06:04;;;;;;;15.57;8.63;;;;;6.10;101842.00;;;;10509584;28;20196;-80
2022/04/27 01:11:06;;;;;;;9.00;7.73;;;;;6.10;101850.00;;;;10510720;28;20292;-80
2022/04/27 01:16:15;;;;;;;15.53;8.50;;;;;6.10;101843.00;;;;10476815;28;20602;-80
2022/04/27 01:21:17;;;;;;;15.17;8.60;;;;;6.00;101845.00;;;;10509753;28;20197;-80
2022/04/27 01:26:24;;;;;;;10.10;7.50;;;;;6.00;101853.00;;;;10493256;28;20189;-81
2022/04/27 01:31:26;;;;;;;10.57;7.90;;;;;6.00;101848.00;;;;10506773;28;20196;-81
2022/04/27 01:36:28;;;;;;;13.57;9.07;;;;;6.10;101847.00;;;;10517736;28;20207;-80
2022/04/27 01:41:30;;;;;;;9.60;8.17;;;;;6.20;101853.00;;;;10534120;28;20212;-81
2022/04/27 01:46:32;;;;;;;14.50;9.07;;;;;6.10;101844.00;;;;10551635;28;20251;-81
2022/04/27 01:56:54;;;;;;;10.73;8.27;;;;;6.00;101848.00;;;;10505773;28;20193;-81
2022/04/27 02:01:58;;;;;;;13.20;8.83;;;;;5.80;101855.00;;;;10531668;28;20675;-81
2022/04/27 02:07:00;;;;;;;12.67;8.77;;;;;5.60;101865.00;;;;10511395;28;20197;-80
2022/04/27 02:12:07;;;;;;;16.00;9.13;;;;;5.50;101864.00;;;;10531123;28;20203;-81
2022/04/27 02:17:10;;;;;;;11.50;9.00;;;;;5.30;101874.00;;;;10491835;28;20654;-80
2022/04/27 02:22:12;;;;;;;14.03;9.10;;;;;5.10;101876.00;;;;10473017;28;20208;-81
2022/04/27 02:27:14;;;;;;;13.70;10.00;;;;;5.10;101861.00;;;;10499188;28;20219;-81
2022/04/27 02:32:16;;;;;;;15.07;9.53;;;;;5.00;101863.00;;;;10473533;28;20300;-81
2022/04/27 02:37:18;;;;;;;15.90;10.13;;;;;5.00;101874.00;;;;10524868;28;20272;-81
2022/04/27 02:42:23;;;;;;;15.17;10.23;;;;;4.90;101871.00;;;;10531756;28;20220;-80
2022/04/27 02:47:25;;;;;;;14.77;10.60;;;;;4.80;101880.00;;;;10517238;28;20659;-81
2022/04/27 02:52:28;;;;;;;12.30;9.60;;;;;4.70;101881.00;;;;10515114;28;20249;-80
2022/04/27 02:57:40;;;;;;;16.27;10.27;;;;;4.60;101884.00;;;;10476242;28;20232;-80
2022/04/27 03:02:42;;;;;;;16.13;9.63;;;;;4.50;101879.00;;;;10540458;28;20208;-81
2022/04/27 03:07:45;;;;;;;14.00;10.40;;;;;4.40;101889.00;;;;10521091;28;20184;-80
2022/04/27 03:12:47;;;;;;;16.80;10.60;;;;;4.40;101883.00;;;;10568265;28;20181;-80
2022/04/27 03:18:16;;;;;;;18.13;10.57;;;;;4.30;101885.00;;;;10506106;28;20203;-81
2022/04/27 03:23:11;;;;;;;16.43;10.70;;;;;4.20;101889.00;;;;10506348;28;20208;-80
2022/04/27 03:28:13;;;;;;;18.10;13.23;;;;;4.20;101891.00;;;;10505520;28;20232;-80
2022/04/27 03:33:16;;;;;;;16.20;12.23;;;;;4.20;101881.00;;;;10515059;28;20643;-80
2022/04/27 03:38:18;;;;;;;17.07;11.43;;;;;4.10;101884.00;;;;10522299;28;20192;-80
2022/04/27 03:43:22;;;;;;;18.20;11.53;;;;;4.00;101888.00;;;;10488768;28;20204;-80
2022/04/27 03:48:24;;;;;;;18.53;12.07;;;;;4.00;101899.00;;;;10496686;28;20567;-80
2022/04/27 03:53:26;;;;;;;23.97;12.07;;;;;3.90;101884.00;;;;10511495;28;20189;-80
2022/04/27 03:58:28;;;;;;;18.30;12.33;;;;;3.80;101896.00;;;;10517382;28;20193;-79
2022/04/27 04:03:30;;;;;;;17.70;11.97;;;;;3.70;101900.00;;;;10518284;28;20262;-79
2022/04/27 04:08:32;;;;;;;18.83;12.40;;;;;3.70;101898.00;;;;10512845;28;20257;-79
2022/04/27 04:13:40;;;;;;;17.93;11.47;;;;;3.70;101901.00;;;;10495507;28;20196;-79
2022/04/27 04:18:56;;;;;;;20.50;12.93;;;;;3.60;101905.00;;;;10497069;28;20193;-80
2022/04/27 04:24:13;;;;;;;19.27;12.40;;;;;3.60;101914.00;;;;10511295;28;20570;-79
2022/04/27 04:29:18;;;;;;;21.87;12.37;;;;;3.60;101924.00;;;;10495391;28;20592;-80
2022/04/27 04:34:20;;;;;;;24.33;13.83;;;;;3.60;101918.00;;;;10533768;28;20214;-80
2022/04/27 04:39:22;;;;;;;20.17;13.97;;;;;3.60;101930.00;;;;10534065;27;20184;-80
2022/04/27 04:44:25;;;;;;;22.13;14.80;;;;;3.70;101934.00;;;;10529799;28;20197;-81
2022/04/27 04:49:47;;;;;;;23.17;15.47;;;;;3.80;101937.00;;;;10533764;28;20655;-79
2022/04/27 04:55:10;;;;;;;22.23;13.37;;;;;4.00;101949.00;;;;10551875;28;20184;-80
2022/04/27 05:00:30;;;;;;;19.93;14.07;;;;;4.20;101949.00;;;;10528989;28;20188;-80
2022/04/27 05:05:47;;;;;;;23.07;14.43;;;;;4.40;101955.00;;;;10506996;27;20347;-80
2022/04/27 05:11:04;;;;;;;20.17;14.90;;;;;4.60;101962.00;;;;10550568;28;20192;-80
2022/04/27 05:16:19;;;;;;;24.17;15.90;;;;;4.90;101961.00;;;;10520020;28;20188;-80
2022/04/27 05:21:37;;;;;;;29.03;17.60;;;;;5.30;101966.00;;;;10515927;28;20215;-80
2022/04/27 05:26:57;;;;;;;25.20;17.80;;;;;6.10;101973.00;;;;10531389;28;20640;-80
2022/04/27 05:32:19;;;;;;;30.57;17.80;;;;;6.30;101970.00;;;;10515990;28;20192;-81
2022/04/27 05:37:50;;;;;;;26.93;19.43;;;;;6.70;101990.00;;;;10536557;28;20667;-81
2022/04/27 05:43:09;;;;;;;29.83;18.10;;;;;7.10;101988.00;;;;10563864;28;20199;-81
2022/04/27 05:48:18;;;;;;;24.90;18.03;;;;;7.50;101999.00;;;;10513764;28;20222;-80
2022/04/27 05:53:47;;;;;;;29.33;18.90;;;;;7.90;101999.00;;;;10523470;28;20199;-81
2022/04/27 05:59:22;;;;;;;22.90;17.90;;;;;8.40;102000.00;;;;10479703;27;20192;-81
2022/04/27 06:04:42;;;;;;;26.73;17.77;;;;;9.00;102007.00;;;;10541340;27;20254;-81
2022/04/27 06:09:44;;;;;;;20.47;15.47;;;;;9.50;102013.00;;;;10536727;27;20212;-81
2022/04/27 06:15:11;;;;;;;22.87;14.77;;;;;9.90;102012.00;;;;10552322;27;20193;-81
2022/04/27 06:20:13;;;;;;;25.47;15.63;;;;;10.30;102021.00;;;;10540764;28;20237;-80
2022/04/27 06:25:19;;;;;;;16.10;13.53;;;;;10.60;102031.00;;;;10544738;27;20303;-80
2022/04/27 06:30:25;;;;;;;19.37;13.43;;;;;10.90;102024.00;;;;10512010;28;20218;-80
2022/04/27 06:35:27;;;;;;;18.10;13.37;;;;;11.30;102030.00;;;;10525556;28;20571;-80
2022/04/27 06:40:35;;;;;;;19.57;11.83;;;;;11.70;102030.00;;;;10492961;28;20208;-80
2022/04/27 06:45:37;;;;;;;19.10;11.87;;;;;11.90;102027.00;;;;10505493;28;20610;-81
2022/04/27 06:50:58;;;;;;;15.13;12.40;;;;;12.30;102040.00;;;;10535377;28;20200;-79
2022/04/27 06:56:18;;;;;;;20.03;13.57;;;;;12.60;102050.00;;;;10496781;28;20200;-81
2022/04/27 07:01:33;;;;;;;16.47;12.17;;;;;13.10;102053.00;;;;10501405;28;20204;-82
2022/04/27 07:06:39;;;;;;;22.20;12.43;;;;;13.60;102056.00;;;;10533039;28;20647;-80
2022/04/27 07:11:41;;;;;;;16.83;11.30;;;;;13.80;102059.00;;;;10531277;28;20291;-80
2022/04/27 07:16:43;;;;;;;16.63;11.10;;;;;14.00;102060.00;;;;10552932;28;20231;-81
2022/04/27 07:21:45;;;;;;;11.97;10.23;;;;;14.20;102062.00;;;;10534392;28;20205;-82
2022/04/27 07:26:47;;;;;;;17.40;10.83;;;;;14.50;102070.00;;;;10517889;28;20193;-81
2022/04/27 07:31:50;;;;;;;13.07;9.63;;;;;14.90;102076.00;;;;10542982;27;20199;-82
2022/04/27 07:36:52;;;;;;;14.00;9.93;;;;;15.10;102076.00;;;;10578043;27;20195;-79
2022/04/27 07:41:54;;;;;;;11.43;9.73;;;;;15.40;102074.00;;;;10542735;28;20216;-79
2022/04/27 07:46:56;;;;;;;14.20;9.63;;;;;15.80;102078.00;;;;10540191;28;20246;-82
2022/04/27 07:51:59;;;;;;;11.20;8.47;;;;;16.20;102086.00;;;;10512489;28;20619;-82
2022/04/27 07:57:01;;;;;;;13.23;8.48;;;;;16.50;102088.00;;;;10496551;28;20188;-80
2022/04/27 08:02:03;;;;;;;11.82;8.70;;;;;16.80;102091.00;;;;10501100;28;20200;-80
2022/04/27 08:07:05;;;;;;;8.98;6.75;;;;;17.00;102094.00;;;;10494319;28;20208;-81
2022/04/27 08:12:07;;;;;;;8.27;6.85;;;;;17.30;102090.00;;;;10556348;28;20206;-80
2022/04/27 08:17:09;;;;;;;9.15;5.68;;;;;17.70;102093.00;;;;10521252;28;20210;-80
2022/04/27 08:22:11;;;;;;;9.50;5.82;;;;;18.00;102092.00;;;;10532848;28;20254;-79
2022/04/27 08:27:13;;;;;;;7.55;5.25;;;;;18.20;102097.00;;;;10548485;28;20188;-80
2022/04/27 08:32:16;;;;;;;7.88;5.28;;;;;18.50;102108.00;;;;10546022;27;20238;-80
2022/04/27 08:37:18;;;;;;;7.22;5.60;;;;;18.80;102104.00;;;;10516463;28;20195;-80
2022/04/27 08:42:20;;;;;;;11.98;5.53;;;;;19.00;102111.00;;;;10531881;28;20333;-80
2022/04/27 08:47:23;;;;;;;10.75;5.03;;;;;19.20;102106.00;;;;10546627;28;20249;-80
2022/04/27 08:52:25;;;;;;;8.82;5.18;;;;;19.50;102108.00;;;;10510000;28;20658;-80
2022/04/27 08:57:27;;;;;;;8.52;5.20;;;;;19.90;102113.00;;;;10486310;28;20193;-80
2022/04/27 09:02:30;;;;;;;8.55;4.18;;;;;20.00;102125.00;;;;10508946;28;20205;-81
2022/04/27 09:07:59;;;;;;;8.00;5.13;;;;;20.20;102114.00;;;;10492950;28;20740;-80
2022/04/27 09:13:03;;;;;;;5.35;4.85;;;;;20.20;102121.00;;;;10532748;27;20199;-80
2022/04/27 09:23:27;;;;;;;5.28;4.25;;;;;19.90;102116.00;;;;10535200;28;20253;-82
2022/04/27 09:28:29;;;;;;;10.85;4.25;;;;;20.20;102120.00;;;;10550719;28;20192;-82
2022/04/27 09:33:37;;;;;;;5.88;4.43;;;;;20.50;102122.00;;;;10532262;28;20279;-81
2022/04/27 09:38:40;;;;;;;6.18;4.20;;;;;20.70;102118.00;;;;10530052;28;20200;-81
2022/04/27 09:43:49;;;;;;;5.45;4.10;;;;;21.10;102131.00;;;;10514142;28;20203;-81
2022/04/27 09:49:09;;;;;;;4.95;3.92;;;;;21.40;102118.00;;;;10537587;28;20278;-81
2022/04/27 09:54:36;;;;;;;6.93;4.47;;;;;21.50;102120.00;;;;10491304;28;20246;-81
2022/04/27 09:59:38;;;;;;;6.75;4.97;;;;;21.40;102113.00;;;;10514900;28;20196;-82
2022/04/27 10:04:54;;;;;;;7.20;4.70;;;;;21.80;102110.00;;;;10531628;28;20210;-82
2022/04/27 10:10:16;;;;;;;7.10;4.75;;;;;22.00;102110.00;;;;10549062;28;20180;-82
2022/04/27 10:15:19;;;;;;;6.05;5.40;;;;;21.80;102106.00;;;;10514212;28;20185;-82
2022/04/27 10:20:34;;;;;;;7.93;5.72;;;;;21.70;102085.00;;;;10475951;28;20210;-82
2022/04/27 10:25:36;;;;;;;6.88;5.53;;;;;22.00;102088.00;;;;10535476;27;20632;-82
2022/04/27 10:30:45;;;;;;;8.02;5.18;;;;;22.30;102097.00;;;;10515652;27;20192;-81
2022/04/27 10:35:47;;;;;;;7.32;5.47;;;;;22.30;102092.00;;;;10534914;28;20608;-82
2022/04/27 10:40:49;;;;;;;8.27;5.22;;;;;22.30;102086.00;;;;10545978;28;20215;-82
2022/04/27 10:45:51;;;;;;;7.05;5.72;;;;;22.30;102083.00;;;;10524263;28;20199;-81
2022/04/27 10:51:01;;;;;;;9.10;5.78;;;;;22.80;102082.00;;;;10545138;28;20212;-82
2022/04/27 10:56:23;;;;;;;9.52;6.10;;;;;23.30;102078.00;;;;10534046;27;20219;-82
2022/04/27 11:01:27;;;;;;;7.38;6.57;;;;;23.30;102081.00;;;;10524876;27;20197;-82
2022/04/27 11:06:52;;;;;;;7.75;6.30;;;;;23.40;102079.00;;;;10534865;27;20189;-82
2022/04/27 11:11:59;;;;;;;9.82;6.35;;;;;23.60;102076.00;;;;10537082;28;20185;-82
2022/04/27 11:17:01;;;;;;;8.10;6.45;;;;;23.70;102075.00;;;;10516243;28;20200;-82
2022/04/27 11:22:14;;;;;;;8.73;6.35;;;;;23.80;102078.00;;;;10508394;28;20270;-82
2022/04/27 11:27:26;;;;;;;10.38;6.18;;;;;24.10;102070.00;;;;10526321;28;20986;-82
2022/04/27 11:32:31;;;;;;;7.07;6.38;;;;;23.80;102069.00;;;;10531511;28;20191;-82
2022/04/27 11:37:37;;;;;;;8.70;6.50;;;;;23.50;102071.00;;;;10530719;28;20188;-83
2022/04/27 11:42:47;;;;;;;8.68;7.10;;;;;22.50;102087.00;;;;10533708;28;20679;-84
2022/04/27 11:47:59;;;;;;;10.10;6.95;;;;;23.70;102070.00;;;;10556554;28;20218;-83
2022/04/27 11:53:04;;;;;;;8.85;7.75;;;;;23.60;102073.00;;;;10524075;27;20180;-84
2022/04/27 11:58:07;;;;;;;10.98;7.07;;;;;23.90;102062.00;;;;10559651;28;20192;-84
2022/04/27 12:03:09;;;;;;;10.60;6.93;;;;;24.10;102066.00;;;;10509493;28;20201;-83
2022/04/27 12:08:18;;;;;;;8.25;6.82;;;;;23.80;102073.00;;;;10506235;27;20283;-84
2022/04/27 12:13:21;;;;;;;8.48;7.43;;;;;23.20;102063.00;;;;10515403;28;20271;-83
2022/04/27 12:18:25;;;;;;;10.77;7.30;;;;;23.40;102049.00;;;;10555362;28;20192;-83
2022/04/27 12:23:30;;;;;;;8.45;6.63;;;;;21.90;102054.00;;;;10542031;28;20261;-84
2022/04/27 12:28:40;;;;;;;9.68;8.38;;;;;20.50;102043.00;;;;10540035;28;20251;-84
2022/04/27 12:33:50;;;;;;;8.30;7.50;;;;;21.00;102044.00;;;;10560668;27;20203;-84
2022/04/27 12:39:04;;;;;;;10.80;9.23;;;;;22.40;102032.00;;;;10533904;28;20196;-83
2022/04/27 12:44:08;;;;;;;9.18;8.07;;;;;23.10;102032.00;;;;10537911;28;20328;-83
2022/04/27 12:49:32;;;;;;;9.00;7.97;;;;;23.90;102033.00;;;;10517466;28;20539;-83
2022/04/27 12:54:36;;;;;;;9.02;7.63;;;;;24.00;102026.00;;;;10514390;28;20579;-84
2022/04/27 12:59:55;;;;;;;8.75;7.85;;;;;24.90;102022.00;;;;10570176;27;20659;-83
2022/04/27 13:04:57;;;;;;;9.45;7.95;;;;;25.60;102023.00;;;;10506245;28;20750;-83
2022/04/27 13:15:21;;;;;;;10.15;7.47;;;;;25.40;102013.00;;;;10533686;27;20185;-82
2022/04/27 13:20:23;;;;;;;8.27;7.45;;;;;26.10;102003.00;;;;10522027;28;20203;-83
2022/04/27 13:25:25;;;;;;;8.43;7.47;;;;;26.30;102013.00;;;;10539608;28;20210;-82
2022/04/27 13:30:28;;;;;;;13.48;7.72;;;;;23.50;102013.00;;;;10527305;28;20735;-82
2022/04/27 13:35:31;;;;;;;9.60;8.60;;;;;26.20;101988.00;;;;10496243;28;20197;-83
2022/04/27 13:40:34;;;;;;;9.93;8.93;;;;;28.90;101979.00;;;;10538429;27;20244;-83
2022/04/27 13:45:36;;;;;;;10.05;7.45;;;;;30.00;101980.00;;;;10564763;28;20670;-83
2022/04/27 13:50:39;;;;;;;10.77;8.05;;;;;30.90;101970.00;;;;10554810;27;20192;-83
2022/04/27 13:55:42;;;;;;;9.75;8.05;;;;;28.80;101996.00;;;;10536092;28;20184;-83
2022/04/27 14:00:44;;;;;;;10.70;8.20;;;;;29.50;101975.00;;;;10532430;27;20300;-82
2022/04/27 14:05:47;;;;;;;8.90;7.47;;;;;29.10;101960.00;;;;10530243;28;20230;-83
2022/04/27 14:10:49;;;;;;;9.23;8.35;;;;;26.70;101989.00;;;;10540953;28;20192;-82
2022/04/27 14:21:12;;;;;;;11.68;8.02;;;;;24.40;101985.00;;;;10546975;28;20196;-83
2022/04/27 14:26:14;;;;;;;10.52;7.55;;;;;22.70;101982.00;;;;10514059;28;20571;-83
2022/04/27 14:31:17;;;;;;;9.57;7.60;;;;;24.40;101943.00;;;;10530998;27;20199;-82
2022/04/27 14:36:20;;;;;;;11.82;8.30;;;;;29.60;101944.00;;;;10516253;27;20524;-82
2022/04/27 14:41:22;;;;;;;8.98;7.47;;;;;31.40;101946.00;;;;10533268;28;20243;-82
2022/04/27 14:46:24;;;;;;;8.80;7.90;;;;;32.40;101948.00;;;;10527249;28;20208;-82
2022/04/27 14:51:26;;;;;;;9.52;8.55;;;;;31.80;101952.00;;;;10525552;28;20208;-82
2022/04/27 14:56:29;;;;;;;10.25;8.43;;;;;31.40;101959.00;;;;10507936;28;20269;-81
2022/04/27 15:01:32;;;;;;;9.15;8.23;;;;;31.80;101955.00;;;;10512097;28;20216;-82
2022/04/27 15:06:34;;;;;;;10.07;7.57;;;;;29.80;101971.00;;;;10551795;28;20628;-81
2022/04/27 15:11:36;;;;;;;14.80;7.78;;;;;29.40;101954.00;;;;10532224;28;20192;-81
2022/04/27 15:16:39;;;;;;;10.70;7.95;;;;;24.80;101974.00;;;;10530450;28;20192;-82
2022/04/27 15:27:03;;;;;;;8.82;7.93;;;;;25.30;101960.00;;;;10568227;28;20231;-82
2022/04/27 15:32:07;;;;;;;8.88;8.00;;;;;22.80;101952.00;;;;10529618;28;20192;-82
2022/04/27 15:37:11;;;;;;;10.98;7.78;;;;;21.80;101950.00;;;;10534592;28;20298;-81
2022/04/27 15:42:14;;;;;;;12.93;8.07;;;;;24.10;101940.00;;;;10539572;28;20208;-82
2022/04/27 15:47:15;;;;;;;12.13;7.20;;;;;26.70;101937.00;;;;10522046;28;20242;-82
2022/04/27 15:52:18;;;;;;;11.60;7.65;;;;;23.10;101950.00;;;;10555979;28;20257;-83
2022/04/27 15:57:20;;;;;;;11.50;8.07;;;;;21.40;101941.00;;;;10534800;28;20211;-79
2022/04/27 16:02:23;;;;;;;9.27;8.40;;;;;20.70;101953.00;;;;10588427;27;20200;-80
2022/04/27 16:07:25;;;;;;;12.13;9.20;;;;;20.70;101938.00;;;;10551513;28;20832;-81
2022/04/27 16:12:27;;;;;;;11.90;8.10;;;;;19.70;101952.00;;;;10538822;28;20184;-82
2022/04/27 16:17:29;;;;;;;8.55;7.65;;;;;19.00;101952.00;;;;10537549;28;20556;-80
2022/04/27 16:27:51;;;;;;;10.45;7.93;;;;;18.50;101953.00;;;;10555380;28;20303;-82
2022/04/27 16:32:54;;;;;;;9.48;8.00;;;;;18.40;101957.00;;;;10540692;28;20190;-82
2022/04/27 16:37:56;;;;;;;10.15;8.25;;;;;18.20;101952.00;;;;10539368;28;20278;-82
2022/04/27 16:42:58;;;;;;;10.98;9.27;;;;;18.00;101959.00;;;;10555377;28;20213;-82
2022/04/27 16:48:00;;;;;;;10.57;9.13;;;;;17.90;101962.00;;;;10513939;28;20268;-82
2022/04/27 16:53:02;;;;;;;9.63;8.73;;;;;17.90;101963.00;;;;10516995;28;20196;-82
2022/04/27 16:58:05;;;;;;;11.35;9.05;;;;;17.80;101965.00;;;;10506826;28;20189;-82
2022/04/27 17:03:07;;;;;;;12.07;8.15;;;;;17.60;101964.00;;;;10528931;27;20212;-82
2022/04/27 17:08:09;;;;;;;9.98;8.95;;;;;17.50;101968.00;;;;10539907;28;20207;-83
2022/04/27 17:13:11;;;;;;;10.73;7.72;;;;;17.40;101969.00;;;;10541515;27;20184;-83
2022/04/27 17:18:13;;;;;;;10.82;8.43;;;;;17.30;101971.00;;;;10578776;27;20192;-83
2022/04/27 17:23:15;;;;;;;10.73;8.37;;;;;17.20;101964.00;;;;10570479;28;20620;-82
2022/04/27 17:28:17;;;;;;;10.60;8.55;;;;;17.00;101966.00;;;;10521926;28;20200;-82
2022/04/27 17:33:19;;;;;;;11.75;8.43;;;;;16.90;101971.00;;;;10513343;28;20729;-83
2022/04/27 17:38:21;;;;;;;9.97;8.97;;;;;16.70;101974.00;;;;10531066;28;20195;-81
2022/04/27 17:43:23;;;;;;;10.33;8.50;;;;;16.50;101976.00;;;;10535567;28;20211;-82
2022/04/27 17:48:28;;;;;;;11.00;8.40;;;;;16.40;101977.00;;;;10554282;28;20196;-82
2022/04/27 17:53:30;;;;;;;11.27;8.20;;;;;16.20;101990.00;;;;10482874;28;20188;-82
2022/04/27 17:58:32;;;;;;;11.30;7.95;;;;;16.10;101999.00;;;;10531625;27;20193;-83
2022/04/27 18:03:34;;;;;;;7.77;6.97;;;;;15.90;102000.00;;;;10554273;28;20208;-82
2022/04/27 18:08:39;;;;;;;11.07;7.60;;;;;15.70;102003.00;;;;10518263;28;20551;-82
2022/04/27 18:13:41;;;;;;;8.47;6.70;;;;;15.50;102010.00;;;;10491558;28;20211;-83
2022/04/27 18:18:50;;;;;;;9.23;6.93;;;;;15.30;102011.00;;;;10503350;27;20292;-81
2022/04/27 18:23:52;;;;;;;9.37;6.80;;;;;15.10;102009.00;;;;10526029;28;20216;-83
2022/04/27 18:28:54;;;;;;;8.80;6.73;;;;;14.80;102018.00;;;;10517271;28;20253;-82
2022/04/27 18:33:56;;;;;;;10.57;6.70;;;;;14.60;102026.00;;;;10499160;28;20204;-82
2022/04/27 18:38:59;;;;;;;9.37;6.73;;;;;14.30;102037.00;;;;10488772;28;20189;-82
2022/04/27 18:54:42;;;;;;;11.63;6.07;;;;;13.50;102054.00;;;;10537534;28;20207;-82
2022/04/27 18:59:45;;;;;;;8.03;5.80;;;;;13.30;102062.00;;;;10520980;28;20203;-83
2022/04/27 19:04:49;;;;;;;9.50;6.57;;;;;13.00;102074.00;;;;10510860;28;20208;-81
2022/04/27 19:09:51;;;;;;;12.77;6.77;;;;;12.80;102077.00;;;;10492017;28;20376;-82
2022/04/27 19:14:53;;;;;;;13.60;7.00;;;;;12.60;102079.00;;;;10550871;28;20192;-83
2022/04/27 19:19:55;;;;;;;12.03;6.43;;;;;12.50;102080.00;;;;10501285;28;20199;-82
2022/04/27 19:24:57;;;;;;;10.83;6.03;;;;;12.30;102095.00;;;;10509358;28;20212;-82
2022/04/27 19:29:59;;;;;;;14.13;6.93;;;;;12.20;102094.00;;;;10530241;28;20201;-82
2022/04/27 19:35:02;;;;;;;10.57;6.50;;;;;12.10;102112.00;;;;10538445;28;20189;-82
2022/04/27 19:40:05;;;;;;;10.17;6.70;;;;;11.90;102105.00;;;;10542922;28;20212;-83
2022/04/27 19:45:07;;;;;;;11.77;6.50;;;;;11.70;102108.00;;;;10544893;28;20228;-82
2022/04/27 19:50:09;;;;;;;11.23;6.87;;;;;11.60;102114.00;;;;10523781;28;20219;-82
2022/04/27 19:55:11;;;;;;;11.00;6.43;;;;;11.50;102119.00;;;;10542272;28;20193;-82
2022/04/27 20:00:14;;;;;;;16.17;8.00;;;;;11.40;102128.00;;;;10533898;28;20231;-82
2022/04/27 20:05:17;;;;;;;11.70;7.47;;;;;11.20;102131.00;;;;10589579;27;20207;-82
2022/04/27 20:10:19;;;;;;;13.00;7.27;;;;;11.20;102148.00;;;;10589853;27;20216;-81
2022/04/27 20:15:21;;;;;;;12.90;7.27;;;;;11.00;102151.00;;;;10527520;28;20196;-83
2022/04/27 20:20:23;;;;;;;15.77;6.77;;;;;10.90;102155.00;;;;10563633;27;20192;-82
2022/04/27 20:25:25;;;;;;;14.70;5.93;;;;;10.80;102164.00;;;;10516132;28;20193;-82
2022/04/27 20:30:27;;;;;;;9.90;5.43;;;;;10.70;102177.00;;;;10582929;27;20193;-82
2022/04/27 20:35:29;;;;;;;13.53;5.40;;;;;10.70;102168.00;;;;10539977;27;20233;-82
2022/04/27 20:40:31;;;;;;;11.50;6.17;;;;;10.50;102174.00;;;;10566396;28;20274;-82
2022/04/27 20:45:34;;;;;;;12.33;5.83;;;;;10.40;102177.00;;;;10570244;28;20212;-82
2022/04/27 20:50:36;;;;;;;9.43;5.17;;;;;10.30;102183.00;;;;10554725;28;20235;-82
2022/04/27 20:55:40;;;;;;;12.70;5.27;;;;;10.20;102190.00;;;;10590820;27;20192;-82
2022/04/27 21:00:42;;;;;;;13.93;5.30;;;;;10.20;102188.00;;;;10566717;27;20203;-82
2022/04/27 21:05:44;;;;;;;12.93;5.10;;;;;10.10;102189.00;;;;10546927;28;20239;-82
2022/04/27 21:10:46;;;;;;;10.97;5.20;;;;;9.90;102204.00;;;;10547159;28;20614;-83
2022/04/27 21:15:48;;;;;;;12.33;5.13;;;;;9.80;102199.00;;;;10548328;28;20177;-82
2022/04/27 21:20:50;;;;;;;9.40;4.93;;;;;9.80;102198.00;;;;10548317;28;20203;-83
2022/04/27 21:25:52;;;;;;;10.80;5.13;;;;;9.70;102203.00;;;;10531841;28;20311;-83
2022/04/27 21:30:54;;;;;;;21.20;5.57;;;;;9.50;102209.00;;;;10543933;28;20605;-82
2022/04/27 21:35:57;;;;;;;10.83;5.10;;;;;9.40;102219.00;;;;10573207;28;20188;-81
2022/04/27 21:41:00;;;;;;;9.93;4.87;;;;;9.30;102219.00;;;;10595552;27;20212;-83
2022/04/27 21:46:02;;;;;;;14.67;6.10;;;;;9.20;102220.00;;;;10582942;27;20196;-83
2022/04/27 21:51:05;;;;;;;9.57;4.77;;;;;9.10;102237.00;;;;10539887;28;20658;-82
2022/04/27 21:56:07;;;;;;;8.20;5.20;;;;;9.00;102246.00;;;;10535420;28;20646;-82
2022/04/27 22:01:09;;;;;;;11.50;5.40;;;;;8.90;102254.00;;;;10535420;28;20197;-82
2022/04/27 22:06:14;;;;;;;11.73;5.30;;;;;8.80;102245.00;;;;10533538;28;20205;-82
2022/04/27 22:11:16;;;;;;;14.47;5.03;;;;;8.70;102256.00;;;;10559372;27;20191;-82
2022/04/27 22:16:19;;;;;;;11.63;5.60;;;;;8.60;102259.00;;;;10557636;27;20195;-82
2022/04/27 22:21:22;;;;;;;10.13;4.60;;;;;8.50;102249.00;;;;10562273;27;20192;-83
2022/04/27 22:26:25;;;;;;;13.33;5.07;;;;;8.50;102266.00;;;;10520902;28;20209;-83
2022/04/27 22:31:27;;;;;;;12.60;5.27;;;;;8.40;102263.00;;;;10515608;27;20203;-84
2022/04/27 22:36:29;;;;;;;11.53;5.13;;;;;8.30;102269.00;;;;10525081;28;20177;-83
2022/04/27 22:41:31;;;;;;;14.40;6.20;;;;;8.20;102275.00;;;;10516316;28;20216;-84
2022/04/27 22:46:33;;;;;;;11.97;5.40;;;;;8.10;102271.00;;;;10503399;28;20204;-83
2022/04/27 22:51:35;;;;;;;8.43;5.60;;;;;8.00;102274.00;;;;10489577;28;20206;-82
2022/04/27 22:56:37;;;;;;;10.33;6.13;;;;;8.00;102279.00;;;;10508228;28;20207;-83
2022/04/27 23:01:39;;;;;;;13.67;6.00;;;;;7.90;102292.00;;;;10532291;28;20196;-83
2022/04/27 23:06:41;;;;;;;7.70;5.43;;;;;7.80;102284.00;;;;10549583;28;20230;-82
2022/04/27 23:11:43;;;;;;;12.80;5.93;;;;;7.70;102283.00;;;;10566412;28;20184;-83
2022/04/27 23:16:45;;;;;;;15.57;5.70;;;;;7.70;102283.00;;;;10550266;28;20192;-83
2022/04/27 23:21:47;;;;;;;12.50;6.00;;;;;7.60;102280.00;;;;10532803;28;20188;-83
2022/04/27 23:26:49;;;;;;;12.53;6.10;;;;;7.50;102286.00;;;;10548356;28;20204;-83
2022/04/27 23:31:51;;;;;;;9.80;5.27;;;;;7.40;102287.00;;;;10502631;28;20213;-83
2022/04/27 23:36:53;;;;;;;13.33;6.10;;;;;7.30;102286.00;;;;10495213;28;20196;-83
2022/04/27 23:41:55;;;;;;;9.70;5.93;;;;;7.30;102289.00;;;;10515831;28;20208;-83
2022/04/27 23:46:57;;;;;;;9.17;5.33;;;;;7.20;102289.00;;;;10515970;28;20699;-83
2022/04/27 23:51:59;;;;;;;7.73;5.47;;;;;7.20;102285.00;;;;10515617;28;20200;-82
2022/04/27 23:57:01;;;;;;;10.60;5.90;;;;;7.10;102292.00;;;;10517056;28;20215;-83
